AFL150 LTFM-URSS
Flight info
| Callsign | AFL150 |
|---|---|
| Flight time | N/A |
| Altitude | 39000 |
| Route | EKAWE1D/35L EKAWE UT641 OSMEV UT641 ABSAX UN743 ODIRA/K0867F390 G487 DIRUN DIRUN1K |
| Aircraft | B77W/H-SDE1E2E3FGHIJ2J3J4J5M1RWXY/LB1D1 |
Departure
| Time | N/A |
|---|---|
| Airport | İstanbul Airport (LTFM) |
Arrival
| Time | 2026-05-01 14:10 |
|---|---|
| Airport | Sochi International Airport (URSS) |
| Time | Latitude | Longitude | Altitude | Speed | Heading |
|---|---|---|---|---|---|
| 2026-05-01 13:53 | 43.09703 | 38.28487 | 19940 ft | 392 kts | 95° |
| 2026-05-01 13:53 | 43.09748 | 38.32392 | 19988 ft | 427 kts | 94° |
| 2026-05-01 13:54 | 43.09829 | 38.36620 | 20021 ft | 462 kts | 92° |
| 2026-05-01 13:54 | 43.09975 | 38.41162 | 20059 ft | 492 kts | 91° |
| 2026-05-01 13:54 | 43.10192 | 38.45931 | 20277 ft | 505 kts | 90° |
| 2026-05-01 13:54 | 43.10460 | 38.50540 | 20854 ft | 470 kts | 89° |
| 2026-05-01 13:55 | 43.10743 | 38.54882 | 19767 ft | 449 kts | 89° |
| 2026-05-01 13:55 | 43.11020 | 38.59028 | 18851 ft | 427 kts | 90° |
| 2026-05-01 13:55 | 43.11275 | 38.62963 | 18243 ft | 401 kts | 90° |
| 2026-05-01 13:55 | 43.11502 | 38.66651 | 17693 ft | 378 kts | 91° |
| 2026-05-01 13:56 | 43.11703 | 38.70146 | 17041 ft | 361 kts | 91° |
| 2026-05-01 13:56 | 43.11885 | 38.73527 | 16279 ft | 351 kts | 91° |
| 2026-05-01 13:56 | 43.12056 | 38.76818 | 15419 ft | 345 kts | 91° |
| 2026-05-01 13:56 | 43.12224 | 38.80148 | 14732 ft | 355 kts | 91° |
| 2026-05-01 13:57 | 43.12396 | 38.83555 | 14131 ft | 361 kts | 91° |
| 2026-05-01 13:57 | 43.12576 | 38.87010 | 13599 ft | 363 kts | 90° |
| 2026-05-01 13:57 | 43.12757 | 38.90416 | 13087 ft | 364 kts | 90° |
| 2026-05-01 13:57 | 43.12941 | 38.93876 | 12603 ft | 364 kts | 90° |
| 2026-05-01 13:58 | 43.13125 | 38.97316 | 12177 ft | 361 kts | 89° |
| 2026-05-01 13:58 | 43.13307 | 39.00734 | 11792 ft | 358 kts | 89° |
| 2026-05-01 13:58 | 43.13487 | 39.04119 | 11403 ft | 355 kts | 89° |
| 2026-05-01 13:58 | 43.13663 | 39.07474 | 11014 ft | 352 kts | 89° |
| 2026-05-01 13:59 | 43.13837 | 39.10798 | 10643 ft | 349 kts | 88° |
| 2026-05-01 13:59 | 43.14008 | 39.14085 | 10385 ft | 342 kts | 88° |
| 2026-05-01 13:59 | 43.14175 | 39.17296 | 10133 ft | 335 kts | 88° |
| 2026-05-01 13:59 | 43.14339 | 39.20459 | 9817 ft | 331 kts | 88° |
| 2026-05-01 14:00 | 43.14499 | 39.23591 | 9520 ft | 326 kts | 88° |
| 2026-05-01 14:00 | 43.14655 | 39.26653 | 9297 ft | 319 kts | 88° |
| 2026-05-01 14:00 | 43.14819 | 39.29656 | 8999 ft | 312 kts | 86° |
| 2026-05-01 14:00 | 43.15185 | 39.32553 | 8523 ft | 306 kts | 77° |
| 2026-05-01 14:01 | 43.15800 | 39.35301 | 8055 ft | 300 kts | 71° |
| 2026-05-01 14:01 | 43.16515 | 39.37985 | 7551 ft | 301 kts | 70° |
| 2026-05-01 14:01 | 43.17226 | 39.40627 | 7266 ft | 298 kts | 71° |
| 2026-05-01 14:01 | 43.17917 | 39.43276 | 7028 ft | 293 kts | 71° |
| 2026-05-01 14:02 | 43.18571 | 39.45876 | 6952 ft | 288 kts | 72° |
| 2026-05-01 14:02 | 43.19212 | 39.48509 | 6639 ft | 294 kts | 72° |
| 2026-05-01 14:02 | 43.19849 | 39.51178 | 6353 ft | 296 kts | 73° |
| 2026-05-01 14:02 | 43.20479 | 39.53853 | 6125 ft | 294 kts | 73° |
| 2026-05-01 14:03 | 43.21102 | 39.56524 | 5916 ft | 291 kts | 73° |
| 2026-05-01 14:03 | 43.21721 | 39.59181 | 5643 ft | 292 kts | 73° |
| 2026-05-01 14:03 | 43.22331 | 39.61807 | 5573 ft | 285 kts | 73° |
| 2026-05-01 14:03 | 43.22930 | 39.64387 | 5200 ft | 290 kts | 73° |
| 2026-05-01 14:04 | 43.23547 | 39.67057 | 4855 ft | 294 kts | 73° |
| 2026-05-01 14:04 | 43.24152 | 39.69669 | 4709 ft | 276 kts | 73° |
| 2026-05-01 14:04 | 43.24722 | 39.72124 | 4190 ft | 267 kts | 73° |
| 2026-05-01 14:04 | 43.25270 | 39.74490 | 3867 ft | 252 kts | 73° |
| 2026-05-01 14:05 | 43.25784 | 39.76708 | 3588 ft | 236 kts | 73° |
| 2026-05-01 14:05 | 43.26272 | 39.78824 | 3415 ft | 231 kts | 73° |
| 2026-05-01 14:05 | 43.26752 | 39.80895 | 3176 ft | 227 kts | 72° |
| 2026-05-01 14:05 | 43.27561 | 39.82663 | 2901 ft | 217 kts | 34° |
| 2026-05-01 14:06 | 43.28866 | 39.83477 | 2787 ft | 198 kts | 21° |
| 2026-05-01 14:06 | 43.30069 | 39.84264 | 2616 ft | 188 kts | 30° |
| 2026-05-01 14:06 | 43.31184 | 39.85149 | 2419 ft | 181 kts | 30° |
| 2026-05-01 14:06 | 43.32264 | 39.85996 | 2290 ft | 180 kts | 29° |
| 2026-05-01 14:07 | 43.33357 | 39.86839 | 2092 ft | 177 kts | 29° |
| 2026-05-01 14:07 | 43.34366 | 39.87615 | 2000 ft | 155 kts | 29° |
| 2026-05-01 14:07 | 43.35250 | 39.88291 | 1960 ft | 137 kts | 28° |
| 2026-05-01 14:08 | 43.36988 | 39.89558 | 1712 ft | 141 kts | 28° |
| 2026-05-01 14:08 | 43.37842 | 39.90196 | 1425 ft | 138 kts | 28° |
| 2026-05-01 14:08 | 43.38677 | 39.90829 | 1151 ft | 136 kts | 28° |
| 2026-05-01 14:08 | 43.39504 | 39.91460 | 917 ft | 134 kts | 29° |
| 2026-05-01 14:09 | 43.40290 | 39.92044 | 856 ft | 134 kts | 28° |
| 2026-05-01 14:09 | 43.41111 | 39.92666 | 762 ft | 141 kts | 30° |
| 2026-05-01 14:09 | 43.41958 | 39.93337 | 551 ft | 139 kts | 29° |
| 2026-05-01 14:09 | 43.42804 | 39.93967 | 303 ft | 138 kts | 30° |
| 2026-05-01 14:10 | 43.43637 | 39.94613 | 88 ft | 135 kts | 28° |
| 2026-05-01 14:10 | 43.44383 | 39.95172 | 90 ft | 107 kts | 30° |
| 2026-05-01 14:10 | 43.44820 | 39.95500 | 97 ft | 42 kts | 29° |
| 2026-05-01 14:10 | 43.44958 | 39.95576 | 95 ft | 9 kts | 356° |
| 2026-05-01 14:11 | 43.45017 | 39.95540 | 98 ft | 9 kts | 333° |
| 2026-05-01 14:11 | 43.45028 | 39.95380 | 98 ft | 11 kts | 246° |
| 2026-05-01 14:11 | 43.44990 | 39.95270 | 94 ft | 14 kts | 245° |
| 2026-05-01 14:12 | 43.44942 | 39.95135 | 91 ft | 11 kts | 241° |
| 2026-05-01 14:12 | 43.44903 | 39.95026 | 90 ft | 14 kts | 246° |
| 2026-05-01 14:12 | 43.44858 | 39.94887 | 86 ft | 18 kts | 245° |
| 2026-05-01 14:12 | 43.44814 | 39.94762 | 85 ft | 10 kts | 244° |
| 2026-05-01 14:13 | 43.44788 | 39.94681 | 84 ft | 4 kts | 251° |
| 2026-05-01 14:13 | 43.44790 | 39.94653 | 82 ft | 5 kts | 291° |
| 2026-05-01 14:13 | 43.44826 | 39.94629 | 84 ft | 1 kts | 335° |
| 2026-05-01 14:13 | 43.44831 | 39.94619 | 84 ft | 2 kts | 304° |
| 2026-05-01 14:14 | 43.44829 | 39.94603 | 82 ft | 2 kts | 251° |
| 2026-05-01 14:14 | 43.44819 | 39.94579 | 84 ft | 4 kts | 243° |
| 2026-05-01 14:14 | 43.44803 | 39.94543 | 82 ft | 5 kts | 238° |
| 2026-05-01 14:14 | 43.44782 | 39.94496 | 85 ft | 7 kts | 237° |
| 2026-05-01 14:15 | 43.44759 | 39.94436 | 83 ft | 8 kts | 261° |
| 2026-05-01 14:15 | 43.44781 | 39.94394 | 82 ft | 4 kts | 337° |
| 2026-05-01 14:15 | 43.44807 | 39.94377 | 85 ft | 0 kts | 335° |
| 2026-05-01 14:15 | 43.44810 | 39.94376 | 85 ft | 0 kts | 335° |